sensor_id;sensor_type;location;lat;lon;timestamp;pressure;altitude;pressure_sealevel;temperature;humidity
63019;BME280;49105;46.046;10.760;2022-12-07T00:00:07;95464.44;;;-0.43;77.87
63019;BME280;49105;46.046;10.760;2022-12-07T00:02:41;95456.84;;;-0.44;78.12
63019;BME280;49105;46.046;10.760;2022-12-07T00:05:19;95451.03;;;-0.46;78.15
63019;BME280;49105;46.046;10.760;2022-12-07T00:07:50;95459.44;;;-0.44;77.83
63019;BME280;49105;46.046;10.760;2022-12-07T00:10:19;95457.84;;;-0.45;77.86
63019;BME280;49105;46.046;10.760;2022-12-07T00:12:53;95459.84;;;-0.47;77.98
63019;BME280;49105;46.046;10.760;2022-12-07T00:15:24;95447.50;;;-0.52;78.01
63019;BME280;49105;46.046;10.760;2022-12-07T00:17:52;95453.72;;;-0.60;78.08
63019;BME280;49105;46.046;10.760;2022-12-07T00:20:18;95449.94;;;-0.64;78.24
63019;BME280;49105;46.046;10.760;2022-12-07T00:22:52;95451.34;;;-0.61;77.87
63019;BME280;49105;46.046;10.760;2022-12-07T00:25:18;95453.88;;;-0.55;77.85
63019;BME280;49105;46.046;10.760;2022-12-07T00:27:49;95446.88;;;-0.54;77.80
63019;BME280;49105;46.046;10.760;2022-12-07T00:30:21;95442.69;;;-0.55;78.05
63019;BME280;49105;46.046;10.760;2022-12-07T00:32:50;95444.88;;;-0.52;78.06
63019;BME280;49105;46.046;10.760;2022-12-07T00:35:24;95436.09;;;-0.58;77.49
63019;BME280;49105;46.046;10.760;2022-12-07T00:37:59;95435.31;;;-0.58;78.20
63019;BME280;49105;46.046;10.760;2022-12-07T00:40:24;95442.31;;;-0.59;77.89
63019;BME280;49105;46.046;10.760;2022-12-07T00:42:59;95437.91;;;-0.58;78.00
63019;BME280;49105;46.046;10.760;2022-12-07T00:45:34;95440.50;;;-0.58;77.81
63019;BME280;49105;46.046;10.760;2022-12-07T00:47:59;95456.88;;;-0.58;78.09
63019;BME280;49105;46.046;10.760;2022-12-07T00:50:34;95445.50;;;-0.57;77.84
63019;BME280;49105;46.046;10.760;2022-12-07T00:52:59;95454.06;;;-0.50;77.72
63019;BME280;49105;46.046;10.760;2022-12-07T00:55:27;95442.06;;;-0.51;77.64
63019;BME280;49105;46.046;10.760;2022-12-07T00:57:59;95434.75;;;-0.67;77.38
63019;BME280;49105;46.046;10.760;2022-12-07T01:00:27;95434.00;;;-0.74;77.90
63019;BME280;49105;46.046;10.760;2022-12-07T01:02:53;95433.00;;;-0.73;77.85
63019;BME280;49105;46.046;10.760;2022-12-07T01:05:18;95435.97;;;-0.69;78.03
63019;BME280;49105;46.046;10.760;2022-12-07T01:07:44;95427.34;;;-0.63;77.89
63019;BME280;49105;46.046;10.760;2022-12-07T01:10:11;95431.75;;;-0.64;77.69
63019;BME280;49105;46.046;10.760;2022-12-07T01:12:44;95436.53;;;-0.61;77.25
63019;BME280;49105;46.046;10.760;2022-12-07T01:15:10;95427.56;;;-0.65;77.87
63019;BME280;49105;46.046;10.760;2022-12-07T01:17:41;95433.31;;;-0.63;77.73
63019;BME280;49105;46.046;10.760;2022-12-07T01:20:17;95431.34;;;-0.61;77.76
63019;BME280;49105;46.046;10.760;2022-12-07T01:25:35;95436.00;;;-0.83;77.73
63019;BME280;49105;46.046;10.760;2022-12-07T01:28:04;95425.50;;;-0.94;78.24
63019;BME280;49105;46.046;10.760;2022-12-07T01:30:29;95430.06;;;-0.96;77.94
63019;BME280;49105;46.046;10.760;2022-12-07T01:33:07;95422.66;;;-0.93;78.05
63019;BME280;49105;46.046;10.760;2022-12-07T01:35:38;95427.47;;;-0.90;78.01
63019;BME280;49105;46.046;10.760;2022-12-07T01:38:13;95433.84;;;-0.86;77.58
63019;BME280;49105;46.046;10.760;2022-12-07T01:40:38;95434.22;;;-0.82;77.65
63019;BME280;49105;46.046;10.760;2022-12-07T01:43:16;95436.84;;;-0.82;77.49
63019;BME280;49105;46.046;10.760;2022-12-07T01:45:49;95434.22;;;-0.82;77.42
63019;BME280;49105;46.046;10.760;2022-12-07T01:48:15;95423.22;;;-0.78;77.38
63019;BME280;49105;46.046;10.760;2022-12-07T01:50:49;95420.81;;;-0.79;77.66
63019;BME280;49105;46.046;10.760;2022-12-07T01:53:16;95420.00;;;-0.80;77.74
63019;BME280;49105;46.046;10.760;2022-12-07T01:56:01;95416.63;;;-0.80;77.61
63019;BME280;49105;46.046;10.760;2022-12-07T01:58:32;95412.84;;;-0.84;77.64
63019;BME280;49105;46.046;10.760;2022-12-07T02:01:07;95413.53;;;-1.02;77.60
63019;BME280;49105;46.046;10.760;2022-12-07T02:03:44;95414.94;;;-1.06;78.13
63019;BME280;49105;46.046;10.760;2022-12-07T02:06:16;95417.53;;;-1.06;77.58
63019;BME280;49105;46.046;10.760;2022-12-07T02:08:44;95412.91;;;-1.04;78.03
63019;BME280;49105;46.046;10.760;2022-12-07T02:11:29;95415.91;;;-1.01;77.85
63019;BME280;49105;46.046;10.760;2022-12-07T02:13:54;95403.31;;;-0.97;77.84
63019;BME280;49105;46.046;10.760;2022-12-07T02:19:05;95404.88;;;-0.89;77.79
63019;BME280;49105;46.046;10.760;2022-12-07T02:27:23;95406.69;;;-0.90;77.56
63019;BME280;49105;46.046;10.760;2022-12-07T02:29:39;95410.66;;;-0.87;77.72
63019;BME280;49105;46.046;10.760;2022-12-07T02:35:02;95399.06;;;-0.85;77.45
63019;BME280;49105;46.046;10.760;2022-12-07T02:43:28;95389.25;;;-0.83;77.17
63019;BME280;49105;46.046;10.760;2022-12-07T02:46:00;95398.84;;;-0.83;77.19
63019;BME280;49105;46.046;10.760;2022-12-07T02:48:26;95391.03;;;-0.83;77.23
63019;BME280;49105;46.046;10.760;2022-12-07T02:50:53;95387.69;;;-0.90;77.09
63019;BME280;49105;46.046;10.760;2022-12-07T02:53:28;95389.53;;;-0.97;77.49
63019;BME280;49105;46.046;10.760;2022-12-07T02:55:54;95392.53;;;-1.01;77.43
63019;BME280;49105;46.046;10.760;2022-12-07T03:01:39;95383.56;;;-1.11;77.56
63019;BME280;49105;46.046;10.760;2022-12-07T03:06:43;95398.16;;;-1.17;77.37
63019;BME280;49105;46.046;10.760;2022-12-07T03:09:15;95395.38;;;-1.15;77.71
63019;BME280;49105;46.046;10.760;2022-12-07T03:12:07;95398.78;;;-1.15;77.59
63019;BME280;49105;46.046;10.760;2022-12-07T03:14:38;95390.78;;;-1.13;77.05
63019;BME280;49105;46.046;10.760;2022-12-07T03:17:21;95395.56;;;-1.17;77.43
63019;BME280;49105;46.046;10.760;2022-12-07T03:20:00;95385.19;;;-1.17;77.45
63019;BME280;49105;46.046;10.760;2022-12-07T03:22:30;95384.00;;;-1.14;77.41
63019;BME280;49105;46.046;10.760;2022-12-07T03:25:06;95385.00;;;-1.22;77.61
63019;BME280;49105;46.046;10.760;2022-12-07T03:27:39;95382.41;;;-1.22;77.72
63019;BME280;49105;46.046;10.760;2022-12-07T03:30:07;95377.22;;;-1.22;77.76
63019;BME280;49105;46.046;10.760;2022-12-07T03:32:59;95366.63;;;-1.20;77.72
63019;BME280;49105;46.046;10.760;2022-12-07T03:35:36;95363.47;;;-1.29;77.28
63019;BME280;49105;46.046;10.760;2022-12-07T03:38:15;95356.06;;;-1.32;77.28
63019;BME280;49105;46.046;10.760;2022-12-07T03:43:17;95367.63;;;-1.28;77.36
63019;BME280;49105;46.046;10.760;2022-12-07T03:49:30;95365.03;;;-1.28;77.64
63019;BME280;49105;46.046;10.760;2022-12-07T03:51:27;95364.47;;;-1.30;77.59
63019;BME280;49105;46.046;10.760;2022-12-07T03:54:10;95372.25;;;-1.30;77.47
63019;BME280;49105;46.046;10.760;2022-12-07T03:56:37;95361.47;;;-1.27;77.09
63019;BME280;49105;46.046;10.760;2022-12-07T03:59:06;95364.25;;;-1.29;77.56
63019;BME280;49105;46.046;10.760;2022-12-07T04:01:32;95362.88;;;-1.31;76.99
63019;BME280;49105;46.046;10.760;2022-12-07T04:04:03;95364.88;;;-1.33;77.49
63019;BME280;49105;46.046;10.760;2022-12-07T04:06:32;95358.66;;;-1.32;77.57
63019;BME280;49105;46.046;10.760;2022-12-07T04:09:07;95363.69;;;-1.31;77.22
63019;BME280;49105;46.046;10.760;2022-12-07T04:11:41;95357.47;;;-1.30;77.37
63019;BME280;49105;46.046;10.760;2022-12-07T04:17:09;95359.69;;;-1.33;77.53
63019;BME280;49105;46.046;10.760;2022-12-07T04:19:35;95350.88;;;-1.32;77.08
63019;BME280;49105;46.046;10.760;2022-12-07T04:22:06;95354.88;;;-1.30;77.09
63019;BME280;49105;46.046;10.760;2022-12-07T04:24:32;95352.06;;;-1.28;77.41
63019;BME280;49105;46.046;10.760;2022-12-07T04:26:57;95355.09;;;-1.31;77.41
63019;BME280;49105;46.046;10.760;2022-12-07T04:29:32;95354.47;;;-1.33;77.71
63019;BME280;49105;46.046;10.760;2022-12-07T04:31:57;95348.69;;;-1.29;77.22
63019;BME280;49105;46.046;10.760;2022-12-07T04:34:23;95346.47;;;-1.25;76.77
63019;BME280;49105;46.046;10.760;2022-12-07T04:37:00;95345.69;;;-1.26;76.86
63019;BME280;49105;46.046;10.760;2022-12-07T04:39:27;95346.28;;;-1.30;76.91
63019;BME280;49105;46.046;10.760;2022-12-07T04:41:59;95347.09;;;-1.30;77.24
63019;BME280;49105;46.046;10.760;2022-12-07T04:44:25;95343.09;;;-1.32;77.40
63019;BME280;49105;46.046;10.760;2022-12-07T04:46:58;95342.91;;;-1.37;77.10
63019;BME280;49105;46.046;10.760;2022-12-07T04:49:27;95343.13;;;-1.45;77.55
63019;BME280;49105;46.046;10.760;2022-12-07T04:52:01;95345.94;;;-1.47;77.12
63019;BME280;49105;46.046;10.760;2022-12-07T04:54:31;95341.34;;;-1.45;77.45
63019;BME280;49105;46.046;10.760;2022-12-07T04:57:05;95339.31;;;-1.36;77.35
63019;BME280;49105;46.046;10.760;2022-12-07T04:59:37;95336.69;;;-1.30;77.24
63019;BME280;49105;46.046;10.760;2022-12-07T05:02:05;95336.91;;;-1.31;76.65
63019;BME280;49105;46.046;10.760;2022-12-07T05:04:33;95321.91;;;-1.29;76.94
63019;BME280;49105;46.046;10.760;2022-12-07T05:06:58;95328.28;;;-1.25;76.90
63019;BME280;49105;46.046;10.760;2022-12-07T05:09:24;95334.72;;;-1.34;77.17
63019;BME280;49105;46.046;10.760;2022-12-07T05:11:55;95325.59;;;-1.43;76.79
63019;BME280;49105;46.046;10.760;2022-12-07T05:14:27;95324.41;;;-1.47;77.17
63019;BME280;49105;46.046;10.760;2022-12-07T05:16:53;95325.75;;;-1.45;77.20
63019;BME280;49105;46.046;10.760;2022-12-07T05:19:19;95326.16;;;-1.41;76.97
63019;BME280;49105;46.046;10.760;2022-12-07T05:22:04;95325.16;;;-1.40;76.85
63019;BME280;49105;46.046;10.760;2022-12-07T05:24:38;95327.94;;;-1.35;76.75
63019;BME280;49105;46.046;10.760;2022-12-07T05:27:09;95322.31;;;-1.32;76.87
63019;BME280;49105;46.046;10.760;2022-12-07T05:29:38;95324.34;;;-1.41;76.76
63019;BME280;49105;46.046;10.760;2022-12-07T05:32:09;95335.56;;;-1.54;76.80
63019;BME280;49105;46.046;10.760;2022-12-07T05:34:35;95328.19;;;-1.43;77.59
63019;BME280;49105;46.046;10.760;2022-12-07T05:37:00;95329.34;;;-1.39;76.73
63019;BME280;49105;46.046;10.760;2022-12-07T05:39:28;95332.75;;;-1.45;76.83
63019;BME280;49105;46.046;10.760;2022-12-07T05:42:07;95333.19;;;-1.55;76.94
63019;BME280;49105;46.046;10.760;2022-12-07T05:44:42;95325.81;;;-1.58;77.02
63019;BME280;49105;46.046;10.760;2022-12-07T05:47:08;95324.00;;;-1.58;77.35
63019;BME280;49105;46.046;10.760;2022-12-07T05:52:36;95335.78;;;-1.55;76.96
63019;BME280;49105;46.046;10.760;2022-12-07T05:55:13;95334.56;;;-1.53;76.96
63019;BME280;49105;46.046;10.760;2022-12-07T05:57:39;95338.38;;;-1.55;77.15
63019;BME280;49105;46.046;10.760;2022-12-07T06:00:04;95338.56;;;-1.57;77.01
63019;BME280;49105;46.046;10.760;2022-12-07T06:02:36;95334.00;;;-1.55;77.35
63019;BME280;49105;46.046;10.760;2022-12-07T06:05:04;95344.75;;;-1.51;76.77
63019;BME280;49105;46.046;10.760;2022-12-07T06:07:36;95345.38;;;-1.69;76.87
63019;BME280;49105;46.046;10.760;2022-12-07T06:10:10;95342.44;;;-1.79;76.70
63019;BME280;49105;46.046;10.760;2022-12-07T06:12:35;95342.63;;;-1.81;77.56
63019;BME280;49105;46.046;10.760;2022-12-07T06:15:12;95345.19;;;-1.74;77.19
63019;BME280;49105;46.046;10.760;2022-12-07T06:17:47;95345.41;;;-1.76;77.47
63019;BME280;49105;46.046;10.760;2022-12-07T06:20:12;95345.41;;;-1.76;77.14
63019;BME280;49105;46.046;10.760;2022-12-07T06:22:38;95351.75;;;-1.65;77.55
63019;BME280;49105;46.046;10.760;2022-12-07T06:25:03;95351.59;;;-1.63;76.91
63019;BME280;49105;46.046;10.760;2022-12-07T06:27:38;95349.78;;;-1.63;76.78
63019;BME280;49105;46.046;10.760;2022-12-07T06:30:03;95348.78;;;-1.62;76.89
63019;BME280;49105;46.046;10.760;2022-12-07T06:32:43;95345.38;;;-1.62;76.96
63019;BME280;49105;46.046;10.760;2022-12-07T06:35:18;95350.78;;;-1.64;77.37
63019;BME280;49105;46.046;10.760;2022-12-07T06:37:43;95347.59;;;-1.66;77.31
63019;BME280;49105;46.046;10.760;2022-12-07T06:40:14;95347.59;;;-1.66;77.34
63019;BME280;49105;46.046;10.760;2022-12-07T06:42:40;95345.00;;;-1.66;76.54
63019;BME280;49105;46.046;10.760;2022-12-07T06:45:05;95341.00;;;-1.62;76.71
63019;BME280;49105;46.046;10.760;2022-12-07T06:47:37;95341.00;;;-1.62;77.30
63019;BME280;49105;46.046;10.760;2022-12-07T06:50:02;95339.41;;;-1.63;76.97
63019;BME280;49105;46.046;10.760;2022-12-07T06:52:38;95348.59;;;-1.60;77.35
63019;BME280;49105;46.046;10.760;2022-12-07T06:55:15;95347.41;;;-1.71;77.11
63019;BME280;49105;46.046;10.760;2022-12-07T06:57:47;95350.00;;;-1.78;76.81
63019;BME280;49105;46.046;10.760;2022-12-07T07:00:12;95355.59;;;-1.74;76.94
63019;BME280;49105;46.046;10.760;2022-12-07T07:02:41;95344.59;;;-1.63;77.11
63019;BME280;49105;46.046;10.760;2022-12-07T07:05:06;95349.97;;;-1.58;76.62
63019;BME280;49105;46.046;10.760;2022-12-07T07:07:35;95349.97;;;-1.58;76.46
63019;BME280;49105;46.046;10.760;2022-12-07T07:10:04;95360.75;;;-1.61;76.95
63019;BME280;49105;46.046;10.760;2022-12-07T07:12:29;95366.34;;;-1.64;76.89
63019;BME280;49105;46.046;10.760;2022-12-07T07:15:00;95366.97;;;-1.75;76.92
63019;BME280;49105;46.046;10.760;2022-12-07T07:17:32;95373.38;;;-1.84;77.24
63019;BME280;49105;46.046;10.760;2022-12-07T07:20:06;95372.56;;;-1.78;77.03
63019;BME280;49105;46.046;10.760;2022-12-07T07:22:38;95375.31;;;-1.73;77.04
63019;BME280;49105;46.046;10.760;2022-12-07T07:28:06;95371.72;;;-1.65;76.94
63019;BME280;49105;46.046;10.760;2022-12-07T07:30:35;95365.75;;;-1.66;76.87
63019;BME280;49105;46.046;10.760;2022-12-07T07:33:04;95366.56;;;-1.85;77.08
63019;BME280;49105;46.046;10.760;2022-12-07T07:35:35;95378.16;;;-1.88;77.38
63019;BME280;49105;46.046;10.760;2022-12-07T07:38:07;95381.72;;;-1.82;76.50
63019;BME280;49105;46.046;10.760;2022-12-07T07:40:39;95376.53;;;-1.82;76.61
63019;BME280;49105;46.046;10.760;2022-12-07T07:43:04;95380.72;;;-1.81;76.54
63019;BME280;49105;46.046;10.760;2022-12-07T07:45:39;95369.38;;;-1.80;76.77
63019;BME280;49105;46.046;10.760;2022-12-07T07:48:07;95366.56;;;-1.72;77.38
63019;BME280;49105;46.046;10.760;2022-12-07T07:50:35;95371.94;;;-1.67;77.09
63019;BME280;49105;46.046;10.760;2022-12-07T07:53:01;95370.53;;;-1.69;76.98
63019;BME280;49105;46.046;10.760;2022-12-07T07:55:32;95377.13;;;-1.73;77.18
63019;BME280;49105;46.046;10.760;2022-12-07T07:57:57;95370.75;;;-1.78;77.01
63019;BME280;49105;46.046;10.760;2022-12-07T08:00:29;95384.94;;;-1.80;77.22
63019;BME280;49105;46.046;10.760;2022-12-07T08:03:03;95374.97;;;-1.77;76.91
63019;BME280;49105;46.046;10.760;2022-12-07T08:05:29;95376.72;;;-1.70;76.87
63019;BME280;49105;46.046;10.760;2022-12-07T08:07:54;95378.13;;;-1.68;76.99
63019;BME280;49105;46.046;10.760;2022-12-07T08:10:20;95379.72;;;-1.60;76.73
63019;BME280;49105;46.046;10.760;2022-12-07T08:12:51;95372.53;;;-1.58;76.80
63019;BME280;49105;46.046;10.760;2022-12-07T08:15:35;95381.75;;;-1.76;77.12
63019;BME280;49105;46.046;10.760;2022-12-07T08:18:01;95379.75;;;-1.80;76.84
63019;BME280;49105;46.046;10.760;2022-12-07T08:20:29;95378.97;;;-1.81;76.90
63019;BME280;49105;46.046;10.760;2022-12-07T08:23:05;95375.16;;;-1.78;76.60
63019;BME280;49105;46.046;10.760;2022-12-07T08:25:43;95379.94;;;-1.75;76.93
63019;BME280;49105;46.046;10.760;2022-12-07T08:28:18;95381.34;;;-1.72;77.38
63019;BME280;49105;46.046;10.760;2022-12-07T08:30:43;95379.13;;;-1.69;76.55
63019;BME280;49105;46.046;10.760;2022-12-07T08:33:15;95381.31;;;-1.66;76.75
63019;BME280;49105;46.046;10.760;2022-12-07T08:35:50;95387.50;;;-1.67;77.28
63019;BME280;49105;46.046;10.760;2022-12-07T08:38:24;95376.72;;;-1.64;77.20
63019;BME280;49105;46.046;10.760;2022-12-07T08:40:56;95381.94;;;-1.64;77.21
63019;BME280;49105;46.046;10.760;2022-12-07T08:43:28;95379.34;;;-1.64;76.70
63019;BME280;49105;46.046;10.760;2022-12-07T08:46:02;95376.13;;;-1.59;76.95
63019;BME280;49105;46.046;10.760;2022-12-07T08:48:28;95379.91;;;-1.62;76.52
63019;BME280;49105;46.046;10.760;2022-12-07T08:51:03;95379.72;;;-1.60;76.76
63019;BME280;49105;46.046;10.760;2022-12-07T08:53:29;95380.88;;;-1.50;77.07
63019;BME280;49105;46.046;10.760;2022-12-07T08:56:14;95387.66;;;-1.48;77.08
63019;BME280;49105;46.046;10.760;2022-12-07T08:58:40;95386.06;;;-1.50;76.43
63019;BME280;49105;46.046;10.760;2022-12-07T09:04:08;95389.69;;;-1.51;76.44
63019;BME280;49105;46.046;10.760;2022-12-07T09:06:33;95387.88;;;-1.43;76.14
63019;BME280;49105;46.046;10.760;2022-12-07T09:09:02;95385.84;;;-1.41;76.20
63019;BME280;49105;46.046;10.760;2022-12-07T09:11:33;95385.84;;;-1.41;76.22
63019;BME280;49105;46.046;10.760;2022-12-07T09:14:07;95385.84;;;-1.41;76.39
63019;BME280;49105;46.046;10.760;2022-12-07T09:16:36;95383.25;;;-1.41;76.45
63019;BME280;49105;46.046;10.760;2022-12-07T09:19:01;95379.66;;;-1.40;76.16
63019;BME280;49105;46.046;10.760;2022-12-07T09:21:26;95379.66;;;-1.40;76.47
63019;BME280;49105;46.046;10.760;2022-12-07T09:23:52;95384.44;;;-1.37;76.32
63019;BME280;49105;46.046;10.760;2022-12-07T09:26:29;95369.88;;;-1.38;76.19
63019;BME280;49105;46.046;10.760;2022-12-07T09:28:55;95376.28;;;-1.41;76.45
63019;BME280;49105;46.046;10.760;2022-12-07T09:31:20;95368.88;;;-1.37;76.58
63019;BME280;49105;46.046;10.760;2022-12-07T09:39:14;95362.03;;;-1.25;76.42
63019;BME280;49105;46.046;10.760;2022-12-07T09:41:52;95366.84;;;-1.22;76.58
63019;BME280;49105;46.046;10.760;2022-12-07T09:44:27;95361.81;;;-1.17;76.44
63019;BME280;49105;46.046;10.760;2022-12-07T09:47:02;95347.97;;;-1.04;76.74
63019;BME280;49105;46.046;10.760;2022-12-07T09:49:36;95350.47;;;-0.84;76.43
63019;BME280;49105;46.046;10.760;2022-12-07T09:54:41;95350.59;;;-0.66;75.97
63019;BME280;49105;46.046;10.760;2022-12-07T09:57:17;95349.34;;;-0.57;76.21
63019;BME280;49105;46.046;10.760;2022-12-07T09:59:52;95335.28;;;-0.49;76.26
63019;BME280;49105;46.046;10.760;2022-12-07T10:02:35;95334.44;;;-0.43;76.31
63019;BME280;49105;46.046;10.760;2022-12-07T10:05:10;95333.22;;;-0.40;75.87
63019;BME280;49105;46.046;10.760;2022-12-07T10:07:37;95332.97;;;-0.32;76.13
63019;BME280;49105;46.046;10.760;2022-12-07T10:10:04;95324.47;;;-0.21;75.85
63019;BME280;49105;46.046;10.760;2022-12-07T10:13:05;95327.16;;;-0.09;75.91
63019;BME280;49105;46.046;10.760;2022-12-07T10:18:14;95328.31;;;0.20;75.84
63019;BME280;49105;46.046;10.760;2022-12-07T10:20:45;95321.84;;;0.29;76.04
63019;BME280;49105;46.046;10.760;2022-12-07T10:23:19;95320.59;;;0.32;76.06
63019;BME280;49105;46.046;10.760;2022-12-07T10:25:51;95318.69;;;0.20;75.71
63019;BME280;49105;46.046;10.760;2022-12-07T10:28:20;95304.75;;;0.15;75.87
63019;BME280;49105;46.046;10.760;2022-12-07T10:30:53;95314.72;;;0.18;75.65
63019;BME280;49105;46.046;10.760;2022-12-07T10:41:35;95301.25;;;0.46;75.49
63019;BME280;49105;46.046;10.760;2022-12-07T10:44:10;95295.88;;;0.41;75.27
63019;BME280;49105;46.046;10.760;2022-12-07T10:54:30;95275.66;;;0.73;75.23
63019;BME280;49105;46.046;10.760;2022-12-07T10:59:50;95273.34;;;0.83;74.98
63019;BME280;49105;46.046;10.760;2022-12-07T11:15:46;95260.66;;;1.17;74.90
63019;BME280;49105;46.046;10.760;2022-12-07T11:18:29;95248.84;;;1.14;75.43
63019;BME280;49105;46.046;10.760;2022-12-07T11:21:07;95249.47;;;1.28;75.33
63019;BME280;49105;46.046;10.760;2022-12-07T11:28:57;95235.13;;;1.61;74.38
63019;BME280;49105;46.046;10.760;2022-12-07T11:41:42;95216.41;;;1.76;74.50
63019;BME280;49105;46.046;10.760;2022-12-07T12:01:42;95195.69;;;2.21;73.95
63019;BME280;49105;46.046;10.760;2022-12-07T12:03:51;95188.19;;;2.24;73.91
63019;BME280;49105;46.046;10.760;2022-12-07T12:06:17;95182.19;;;2.24;73.78
63019;BME280;49105;46.046;10.760;2022-12-07T12:09:26;95185.34;;;2.26;74.07
63019;BME280;49105;46.046;10.760;2022-12-07T12:22:15;95171.03;;;2.69;73.88
63019;BME280;49105;46.046;10.760;2022-12-07T12:24:42;95160.66;;;2.74;73.81
63019;BME280;49105;46.046;10.760;2022-12-07T12:27:09;95167.00;;;2.78;73.80
63019;BME280;49105;46.046;10.760;2022-12-07T12:29:40;95170.97;;;2.81;73.72
63019;BME280;49105;46.046;10.760;2022-12-07T12:37:07;95168.69;;;2.84;73.73
63019;BME280;49105;46.046;10.760;2022-12-07T12:39:38;95166.16;;;2.89;73.84
63019;BME280;49105;46.046;10.760;2022-12-07T12:42:05;95167.81;;;2.95;73.96
63019;BME280;49105;46.046;10.760;2022-12-07T12:45:02;95169.44;;;2.96;73.82
63019;BME280;49105;46.046;10.760;2022-12-07T12:50:18;95162.47;;;3.19;73.67
63019;BME280;49105;46.046;10.760;2022-12-07T12:52:49;95157.88;;;3.26;73.81
63019;BME280;49105;46.046;10.760;2022-12-07T12:55:17;95153.44;;;3.27;73.55
63019;BME280;49105;46.046;10.760;2022-12-07T12:57:46;95154.53;;;3.31;73.67
63019;BME280;49105;46.046;10.760;2022-12-07T13:02:50;95149.00;;;3.10;73.33
63019;BME280;49105;46.046;10.760;2022-12-07T13:05:18;95145.97;;;3.02;73.52
63019;BME280;49105;46.046;10.760;2022-12-07T13:13:37;95138.84;;;2.97;73.53
63019;BME280;49105;46.046;10.760;2022-12-07T13:15:41;95136.94;;;2.92;73.45
63019;BME280;49105;46.046;10.760;2022-12-07T13:23:07;95135.00;;;2.71;73.89
63019;BME280;49105;46.046;10.760;2022-12-07T13:25:36;95126.28;;;2.65;73.81
63019;BME280;49105;46.046;10.760;2022-12-07T13:30:28;95126.59;;;2.69;73.80
63019;BME280;49105;46.046;10.760;2022-12-07T13:32:55;95121.38;;;2.69;73.69
63019;BME280;49105;46.046;10.760;2022-12-07T13:35:31;95126.81;;;2.67;73.57
63019;BME280;49105;46.046;10.760;2022-12-07T13:37:56;95124.72;;;2.64;73.42
63019;BME280;49105;46.046;10.760;2022-12-07T13:40:22;95114.25;;;2.64;73.70
63019;BME280;49105;46.046;10.760;2022-12-07T13:42:56;95120.47;;;2.63;73.58
63019;BME280;49105;46.046;10.760;2022-12-07T13:45:26;95121.75;;;2.61;73.75
63019;BME280;49105;46.046;10.760;2022-12-07T13:48:30;95115.44;;;2.57;73.65
63019;BME280;49105;46.046;10.760;2022-12-07T13:50:57;95115.44;;;2.57;73.78
63019;BME280;49105;46.046;10.760;2022-12-07T13:53:23;95116.47;;;2.56;73.58
63019;BME280;49105;46.046;10.760;2022-12-07T13:55:49;95115.34;;;2.52;73.48
63019;BME280;49105;46.046;10.760;2022-12-07T13:58:14;95106.94;;;2.49;73.55
63019;BME280;49105;46.046;10.760;2022-12-07T14:00:40;95101.16;;;2.47;73.59
63019;BME280;49105;46.046;10.760;2022-12-07T14:05:38;95104.69;;;2.41;73.69
63019;BME280;49105;46.046;10.760;2022-12-07T14:08:24;95104.94;;;2.40;73.75
63019;BME280;49105;46.046;10.760;2022-12-07T14:13:57;95108.47;;;2.34;73.50
63019;BME280;49105;46.046;10.760;2022-12-07T14:16:54;95109.75;;;2.31;73.79
63019;BME280;49105;46.046;10.760;2022-12-07T14:18:50;95116.22;;;2.29;73.53
63019;BME280;49105;46.046;10.760;2022-12-07T14:21:17;95112.25;;;2.26;73.90
63019;BME280;49105;46.046;10.760;2022-12-07T14:26:31;95126.78;;;2.22;73.54
63019;BME280;49105;46.046;10.760;2022-12-07T14:29:18;95119.44;;;2.19;73.81
63019;BME280;49105;46.046;10.760;2022-12-07T14:31:42;95130.88;;;2.18;73.76
63019;BME280;49105;46.046;10.760;2022-12-07T14:34:11;95133.75;;;2.16;73.66
63019;BME280;49105;46.046;10.760;2022-12-07T14:36:36;95139.41;;;2.13;73.77
63019;BME280;49105;46.046;10.760;2022-12-07T14:39:01;95140.69;;;2.11;73.97
63019;BME280;49105;46.046;10.760;2022-12-07T14:41:27;95131.25;;;2.10;73.84
63019;BME280;49105;46.046;10.760;2022-12-07T14:44:11;95143.50;;;2.09;74.14
63019;BME280;49105;46.046;10.760;2022-12-07T14:46:36;95140.34;;;2.07;73.86
63019;BME280;49105;46.046;10.760;2022-12-07T14:49:01;95149.44;;;2.05;73.67
63019;BME280;49105;46.046;10.760;2022-12-07T14:51:27;95146.16;;;1.97;74.01
63019;BME280;49105;46.046;10.760;2022-12-07T14:53:52;95157.06;;;1.94;74.03
63019;BME280;49105;46.046;10.760;2022-12-07T14:56:18;95157.63;;;1.85;74.20
63019;BME280;49105;46.046;10.760;2022-12-07T14:58:43;95158.31;;;1.80;74.57
63019;BME280;49105;46.046;10.760;2022-12-07T15:01:08;95165.59;;;1.78;74.54
63019;BME280;49105;46.046;10.760;2022-12-07T15:03:34;95164.03;;;1.77;74.47
63019;BME280;49105;46.046;10.760;2022-12-07T15:06:00;95178.63;;;1.78;74.27
63019;BME280;49105;46.046;10.760;2022-12-07T15:08:25;95172.06;;;1.76;74.27
63019;BME280;49105;46.046;10.760;2022-12-07T15:10:51;95176.94;;;1.72;74.55
63019;BME280;49105;46.046;10.760;2022-12-07T15:13:16;95183.19;;;1.71;74.51
63019;BME280;49105;46.046;10.760;2022-12-07T15:16:00;95176.38;;;1.70;74.71
63019;BME280;49105;46.046;10.760;2022-12-07T15:18:25;95178.53;;;1.61;73.97
63019;BME280;49105;46.046;10.760;2022-12-07T15:20:50;95179.56;;;1.48;74.35
63019;BME280;49105;46.046;10.760;2022-12-07T15:23:16;95178.28;;;1.39;74.32
63019;BME280;49105;46.046;10.760;2022-12-07T15:25:42;95183.38;;;1.34;74.77
63019;BME280;49105;46.046;10.760;2022-12-07T15:28:08;95177.63;;;1.32;74.84
63019;BME280;49105;46.046;10.760;2022-12-07T15:30:33;95171.03;;;1.30;74.75
63019;BME280;49105;46.046;10.760;2022-12-07T15:32:58;95179.88;;;1.29;74.53
63019;BME280;49105;46.046;10.760;2022-12-07T15:35:23;95174.88;;;1.27;75.05
63019;BME280;49105;46.046;10.760;2022-12-07T15:37:49;95184.63;;;1.20;74.80
63019;BME280;49105;46.046;10.760;2022-12-07T15:40:14;95186.53;;;1.13;74.91
63019;BME280;49105;46.046;10.760;2022-12-07T15:42:40;95184.97;;;1.12;75.30
63019;BME280;49105;46.046;10.760;2022-12-07T15:45:06;95186.97;;;1.10;74.95
63019;BME280;49105;46.046;10.760;2022-12-07T15:47:33;95191.41;;;1.09;75.38
63019;BME280;49105;46.046;10.760;2022-12-07T15:50:00;95192.44;;;1.08;75.50